This is the latest recevied weather packets stored in our database for station/object OM5AST-13. If no packets are shown the sender has not sent any weather packets the latest 10 day(s).
| Time | Temp. | Humidity | Pressure | Rain* | Wind** | Luminosity | Snow |
|---|---|---|---|---|---|---|---|
| 1777496635 | 8.33° C | 32% | - | 0 mm | - | 0 W/m² | - |
| 1777495436 | 8.89° C | 31% | - | 0 mm | - | 0 W/m² | - |
| 1777494236 | 8.89° C | 30% | - | 0 mm | - | 0 W/m² | - |
| 1777493035 | 9.44° C | 28% | - | 0 mm | - | 0 W/m² | - |
| 1777491835 | 10° C | 27% | - | 0 mm | - | 0 W/m² | - |
| 1777490635 | 10° C | 26% | - | 0 mm | - | 0 W/m² | - |
| 1777489435 | 11.11° C | 26% | - | 0 mm | - | 0 W/m² | - |
| 1777488236 | 11.67° C | 27% | - | 0 mm | - | 0 W/m² | - |
| 1777487035 | 12.78° C | 27% | - | 0 mm | - | 0 W/m² | - |
| 1777485835 | 14.44° C | 26% | - | 0 mm | - | 0 W/m² | - |
| 1777484635 | 16.67° C | 23% | - | 0 mm | - | 0 W/m² | - |
| 1777483435 | 18.33° C | 22% | - | 0 mm | - | 0 W/m² | - |
| 1777482235 | 19.44° C | 21% | - | 0 mm | - | 0 W/m² | - |
| 1777481036 | 18.89° C | 23% | - | 0 mm | - | 0 W/m² | - |
| 1777479835 | 20° C | 23% | - | 0 mm | - | 0 W/m² | - |
| 1777478635 | 20.56° C | 22% | - | 0 mm | - | 0 W/m² | - |
| 1777477435 | 20° C | 23% | - | 0 mm | - | 0 W/m² | - |
| 1777476235 | 19.44° C | 23% | - | 0 mm | - | 0 W/m² | - |
| 1777475036 | 18.33° C | 24% | - | 0 mm | - | 0 W/m² | - |
| 1777473835 | 18.33° C | 23% | - | 0 mm | - | 0 W/m² | - |
| 1777472635 | 18.89° C | 21% | - | 0 mm | - | 0 W/m² | - |
| 1777471435 | 19.44° C | 23% | - | 0 mm | - | 0 W/m² | - |
| 1777470235 | 21.67° C | 21% | - | 0 mm | - | 0 W/m² | - |
| 1777469035 | 20.56° C | 21% | - | 0 mm | - | 0 W/m² | - |
| 1777467835 | 20.56° C | 22% | - | 0 mm | - | 0 W/m² | - |
* Rain latest hour (hover to see other rain measurements)
** Current wind speed in m/s (hover to see current wind gust speed)